Aérodrome :
LOGIN :

S'inscrire | Disclaimer

   EN    FR    IT 

 










Légende :    VFR   VFR Marginal   IFR   IFR Intensif   IFR Très Intensif
Visi : 
Plafond : 
>= 8 km
>= 3000ft
5 à 8 km
1000 à 3000 ft
1500m à 5 km
500 à 1000 ft
800 à 1500m
200 à 500 ft
< 800m
< 200 ft
Symboles :   Orages  Brouillard  Fortes neiges  Fortes précipitations  Vent > 20 kt
SIGMETs :   Divers  Orages  Givrage  Turbulence  Onde Orograph.  Cendres Volcan.







- Altitude de l'aérodrome : 160 ft
- Code IATA : FMO


EDDG - Münster Osnabrück Int.

DERNIER METAR :
  • 192050Z 11004KT 030V170 CAVOK 21/07 Q1025 NOSIG

METARs EXPIRÉS :
  • 192020Z 11003KT 030V180 CAVOK 21/07 Q1025 NOSIG
  • 191950Z VRB04KT CAVOK 22/07 Q1025 NOSIG
  • 191920Z 10005KT 040V190 CAVOK 23/07 Q1025 NOSIG
  • 191850Z 09004KT 050V130 CAVOK 23/07 Q1025 NOSIG
  • 191820Z 08004KT 030V160 CAVOK 25/07 Q1025 NOSIG
  • 191750Z 08004KT 360V130 CAVOK 26/06 Q1025 NOSIG

TAF TAF EDDG
Valide du 19 à 18h jusqu'au 20 à 18h UTC


191700Z 1918/2018 11003KT CAVOK
BECMG 2007/2010 22006KT
BECMG 2012/2015 28008KT
Pas de NOTAMs connus pour ce terrain.



MET'MAP, la Météo Aéronautique d'un coup d'oeil ! - Copyright ORBIFLY Décembre 2007 - Disclaimer

ORBIFLY MET'MAP TEAM :

Programmation & Développement : Alexandra Zaïnal
Conception & Développement : Baudouin d'Aumeries
Co-Programmation & Développement : Marc-Olivier Méhu
Soutien technique & logistique : Manuel Goepfert

Contact : metmap@orbifly.com




SOURCES & CREDITS :

   NOAA